Gulf, North Carolina
Current Conditions -  °F | °C
As of 3:35 AM on Monday 22 Dec 2014 (Local Time) from KTTA Reporting Station
Drizzle Drizzle  
Wind Chill: 32°   Ceiling: 800
Heat Index: 38°   Visibility: 7mi
Dew Point: 38°   Wind: 8mph
Humidity: 100%   Direction: 20°NNE
Pressure: 30.15"   Gusts: NA
Location:  35.56°N, 79.28°W
Report Text: KTTA 220835Z AUTO 02007KT 7SM DZ OVC008 04/04 A3015 RMK AO2 P0001 T00350035
Loading
Personal Weather Stations






























Interactive Weather Map New forecast layout! Learn more

10-Day Weather Forecast

Advertisements
Track Severe Weather on mobile